Time;durP1;ratioP1;P1;durP2;ratioP2;P2;SDS_P1;SDS_P2;PMS_P1;PMS_P2;Temp;Humidity;BMP_temperature;BMP_pressure;BME280_temperature;BME280_humidity;BME280_pressure;Samples;Min_cycle;Max_cycle;Signal;HPM_P1;HPM_P2
2023/05/11 00:01:06;;;;;;;6.68;4.90;;;;;;;13.60;100.00;98017.94;2593581;28;20057;-84
2023/05/11 00:02:22;;;;;;;7.45;5.18;;;;;;;13.93;100.00;98016.41;2592937;28;20050;-85
2023/05/11 00:03:37;;;;;;;7.95;5.25;;;;;;;13.32;100.00;98019.19;2592500;28;20061;-86
2023/05/11 00:04:54;;;;;;;7.97;5.40;;;;;;;13.69;100.00;98021.91;2591634;28;20132;-84
2023/05/11 00:06:09;;;;;;;7.03;5.40;;;;;;;13.64;100.00;98010.75;2594243;28;20077;-84
2023/05/11 00:07:25;;;;;;;7.30;5.15;;;;;;;13.88;100.00;98013.13;2593794;28;20131;-84
2023/05/11 00:08:41;;;;;;;8.45;5.28;;;;;;;13.94;100.00;98007.56;2594156;28;20064;-84
2023/05/11 00:09:56;;;;;;;7.43;5.20;;;;;;;13.86;100.00;98010.59;2594376;28;20050;-84
2023/05/11 00:11:12;;;;;;;7.35;4.93;;;;;;;14.05;100.00;98021.06;2591488;28;20501;-84
2023/05/11 00:12:27;;;;;;;7.35;5.32;;;;;;;14.07;100.00;98013.06;2592629;28;20520;-84
2023/05/11 00:13:44;;;;;;;6.70;4.80;;;;;;;14.09;100.00;98016.47;2593679;28;20106;-85
2023/05/11 00:14:59;;;;;;;8.48;5.43;;;;;;;14.10;100.00;98015.56;2591761;28;20139;-84
2023/05/11 00:16:15;;;;;;;5.82;4.65;;;;;;;13.61;100.00;98014.38;2594439;28;20103;-84
2023/05/11 00:17:31;;;;;;;7.93;4.90;;;;;;;13.67;100.00;98015.88;2594992;28;20064;-85
2023/05/11 00:18:47;;;;;;;6.80;4.80;;;;;;;13.70;100.00;98018.34;2592804;28;20614;-84
2023/05/11 00:20:03;;;;;;;6.93;4.80;;;;;;;13.82;100.00;98014.25;2591160;28;20053;-84
2023/05/11 00:21:21;;;;;;;6.97;5.25;;;;;;;13.79;100.00;98009.16;2592848;28;20136;-84
2023/05/11 00:22:37;;;;;;;7.45;5.47;;;;;;;13.61;100.00;98011.75;2594516;28;21078;-84
2023/05/11 00:23:53;;;;;;;6.97;5.63;;;;;;;13.63;100.00;98015.16;2594076;28;20073;-84
2023/05/11 00:25:09;;;;;;;6.88;5.22;;;;;;;13.69;100.00;98012.25;2592359;28;20054;-85
2023/05/11 00:26:25;;;;;;;8.45;5.47;;;;;;;13.58;100.00;98018.94;2592898;28;20049;-85
2023/05/11 00:27:44;;;;;;;7.13;5.20;;;;;;;13.50;100.00;98011.41;2592297;28;20045;-85
2023/05/11 00:29:00;;;;;;;8.18;5.53;;;;;;;13.56;100.00;98008.50;2592926;28;20084;-84
2023/05/11 00:30:15;;;;;;;8.30;5.50;;;;;;;13.62;100.00;98008.19;2591936;28;20505;-84
2023/05/11 00:31:31;;;;;;;7.88;5.45;;;;;;;13.57;100.00;98007.56;2594729;28;20076;-85
2023/05/11 00:32:47;;;;;;;6.93;5.45;;;;;;;13.32;100.00;98007.81;2594752;28;20050;-84
2023/05/11 00:34:03;;;;;;;8.20;4.93;;;;;;;13.47;100.00;98006.28;2593241;28;20064;-84
2023/05/11 00:35:19;;;;;;;8.95;5.90;;;;;;;13.45;100.00;98005.50;2594316;28;20050;-84
2023/05/11 00:36:38;;;;;;;7.25;4.80;;;;;;;13.17;100.00;98006.75;2593380;28;20064;-84
2023/05/11 00:37:53;;;;;;;8.18;5.20;;;;;;;13.22;100.00;98007.38;2591699;28;20057;-85
2023/05/11 00:39:10;;;;;;;7.85;5.95;;;;;;;13.35;100.00;98002.44;2587908;28;20049;-85
2023/05/11 00:40:26;;;;;;;8.88;5.53;;;;;;;13.65;100.00;98004.56;2593607;28;20603;-85
2023/05/11 00:41:42;;;;;;;7.35;5.40;;;;;;;13.56;100.00;98001.44;2592678;28;20076;-84
2023/05/11 00:42:57;;;;;;;8.32;5.78;;;;;;;13.80;100.00;97992.44;2592742;28;20049;-84
2023/05/11 00:44:13;;;;;;;9.77;5.75;;;;;;;13.98;100.00;97999.47;2593282;28;20049;-84
2023/05/11 00:45:29;;;;;;;8.68;5.70;;;;;;;14.04;100.00;98000.94;2591710;28;20057;-84
2023/05/11 00:46:44;;;;;;;8.60;6.18;;;;;;;13.91;100.00;98000.69;2594524;28;20049;-85
2023/05/11 00:48:00;;;;;;;10.65;6.28;;;;;;;14.08;100.00;97999.84;2600939;28;20052;-85
2023/05/11 00:49:16;;;;;;;8.30;5.65;;;;;;;14.16;100.00;97996.84;2599790;28;20131;-85
2023/05/11 00:50:31;;;;;;;7.78;5.75;;;;;;;14.20;100.00;97995.75;2595084;28;20378;-85
2023/05/11 00:51:47;;;;;;;7.13;5.65;;;;;;;14.16;100.00;98003.88;2592519;28;20398;-85
2023/05/11 00:53:03;;;;;;;9.98;6.57;;;;;;;14.10;100.00;97997.13;2592677;28;20049;-85
2023/05/11 00:54:19;;;;;;;8.98;6.45;;;;;;;14.15;100.00;98000.41;2592434;28;20548;-84
2023/05/11 00:55:35;;;;;;;8.93;5.85;;;;;;;14.11;100.00;98001.50;2593920;28;20472;-84
2023/05/11 00:56:50;;;;;;;9.82;6.53;;;;;;;14.08;100.00;97996.34;2592844;28;20045;-85
2023/05/11 00:58:06;;;;;;;8.70;6.38;;;;;;;14.12;100.00;98000.56;2593608;28;20060;-85
2023/05/11 00:59:22;;;;;;;7.47;5.93;;;;;;;14.09;100.00;97993.66;2590852;28;20429;-85
2023/05/11 01:00:38;;;;;;;9.38;6.25;;;;;;;13.99;100.00;98002.94;2593854;28;20076;-85
2023/05/11 01:01:53;;;;;;;8.38;5.82;;;;;;;14.14;100.00;97996.06;2602472;28;20103;-85
2023/05/11 01:03:10;;;;;;;8.70;6.07;;;;;;;14.03;100.00;97993.94;2600256;28;20053;-85
2023/05/11 01:04:26;;;;;;;8.88;6.25;;;;;;;14.00;100.00;98004.63;2593589;28;20042;-84
2023/05/11 01:05:56;;;;;;;8.55;6.15;;;;;;;14.06;100.00;97998.22;2590308;28;20301;-84
2023/05/11 01:07:18;;;;;;;7.53;5.95;;;;;;;13.92;100.00;97998.91;2592683;28;20079;-85
2023/05/11 01:09:06;;;;;;;8.32;5.88;;;;;;;14.13;100.00;97994.38;2594682;28;20085;-84
2023/05/11 01:10:33;;;;;;;7.82;5.63;;;;;;;14.08;100.00;97999.84;2593182;28;20053;-85
2023/05/11 01:12:26;;;;;;;8.20;5.72;;;;;;;14.13;100.00;97999.63;2593667;28;20065;-84
2023/05/11 01:13:50;;;;;;;8.70;5.45;;;;;;;14.06;100.00;98000.84;2592842;28;20089;-85
2023/05/11 01:15:26;;;;;;;7.07;5.03;;;;;;;13.61;100.00;98006.50;2593518;28;20053;-85
2023/05/11 01:16:45;;;;;;;7.35;5.40;;;;;;;13.72;100.00;97997.25;2592811;28;20050;-84
2023/05/11 01:18:32;;;;;;;8.30;5.30;;;;;;;13.80;100.00;98002.97;2593076;28;20100;-85
2023/05/11 01:19:57;;;;;;;7.80;5.30;;;;;;;14.03;100.00;98001.00;2593570;28;20057;-84
2023/05/11 01:21:15;;;;;;;7.22;4.72;;;;;;;14.08;100.00;98001.63;2593767;28;20511;-85
2023/05/11 01:22:58;;;;;;;8.52;4.97;;;;;;;14.02;100.00;98001.94;2593547;28;20434;-84
2023/05/11 01:24:16;;;;;;;7.88;5.40;;;;;;;14.03;100.00;98001.00;2593876;28;20492;-85
2023/05/11 01:25:35;;;;;;;8.48;5.28;;;;;;;14.03;100.00;98001.84;2593128;28;20093;-84
2023/05/11 01:27:16;;;;;;;7.18;5.18;;;;;;;14.07;100.00;97994.66;2594802;28;20078;-84
2023/05/11 01:28:53;;;;;;;7.13;4.70;;;;;;;14.08;100.00;97997.22;2592267;28;20146;-84
2023/05/11 01:30:28;;;;;;;7.45;5.22;;;;;;;14.06;100.00;97995.59;2594772;28;20498;-85
2023/05/11 01:31:47;;;;;;;8.90;5.30;;;;;;;14.12;100.00;98001.41;2591653;28;20146;-85
2023/05/11 01:33:08;;;;;;;9.45;5.68;;;;;;;14.13;100.00;97999.63;2591749;28;20081;-84
2023/05/11 01:34:27;;;;;;;8.50;5.20;;;;;;;14.07;100.00;98000.78;2593361;28;20053;-84
2023/05/11 01:35:52;;;;;;;7.63;5.32;;;;;;;14.06;100.00;98004.34;2591476;28;20053;-84
2023/05/11 01:37:37;;;;;;;9.27;5.65;;;;;;;13.90;100.00;97998.97;2592708;28;20143;-84
2023/05/11 01:38:57;;;;;;;7.72;5.45;;;;;;;13.98;100.00;98007.34;2582270;28;20058;-84
2023/05/11 01:40:16;;;;;;;8.63;5.43;;;;;;;14.01;100.00;97994.97;2588091;28;20057;-84
2023/05/11 01:41:33;;;;;;;7.68;5.18;;;;;;;14.02;100.00;97999.31;2592624;28;20485;-84
2023/05/11 01:43:02;;;;;;;6.45;5.10;;;;;;;14.07;100.00;98007.81;2591666;28;20050;-84
2023/05/11 01:44:22;;;;;;;6.75;5.18;;;;;;;14.05;100.00;98005.28;2591888;28;20533;-85
2023/05/11 01:45:42;;;;;;;6.50;4.97;;;;;;;14.07;100.00;98007.81;2591545;28;20053;-85
2023/05/11 01:47:00;;;;;;;7.55;5.32;;;;;;;13.97;100.00;98005.66;2591805;28;20056;-84
2023/05/11 01:48:21;;;;;;;8.63;5.28;;;;;;;14.06;100.00;98011.38;2603034;28;20504;-85
2023/05/11 01:49:39;;;;;;;7.55;5.38;;;;;;;14.08;100.00;98007.75;2598291;28;20485;-84
2023/05/11 01:51:00;;;;;;;7.80;5.55;;;;;;;14.11;100.00;97998.88;2592380;28;20042;-85
2023/05/11 01:52:18;;;;;;;6.72;4.97;;;;;;;13.97;100.00;98012.69;2590950;28;20049;-84
2023/05/11 01:53:37;;;;;;;8.07;5.60;;;;;;;13.86;100.00;98007.94;2590842;28;20050;-85
2023/05/11 01:54:55;;;;;;;6.95;5.10;;;;;;;13.64;100.00;98011.59;2593378;28;20057;-85
2023/05/11 01:56:11;;;;;;;8.02;5.18;;;;;;;13.49;100.00;98010.56;2592790;28;20393;-85
2023/05/11 01:57:29;;;;;;;6.88;4.88;;;;;;;13.35;100.00;98005.06;2591465;28;20046;-85
2023/05/11 01:58:45;;;;;;;8.10;4.68;;;;;;;13.59;100.00;98005.72;2592227;28;20100;-84
2023/05/11 02:00:02;;;;;;;7.63;5.35;;;;;;;13.56;100.00;98008.50;2593987;28;20749;-84
2023/05/11 02:01:18;;;;;;;6.82;5.13;;;;;;;13.66;100.00;98001.84;2592924;28;20520;-84
2023/05/11 02:02:35;;;;;;;7.88;4.57;;;;;;;13.80;100.00;98003.84;2592279;28;20053;-84
2023/05/11 02:03:53;;;;;;;6.15;5.03;;;;;;;13.75;100.00;98005.81;2592836;28;20050;-84
2023/05/11 02:05:10;;;;;;;7.38;4.95;;;;;;;13.52;100.00;98010.41;2592451;28;20060;-84
2023/05/11 02:06:29;;;;;;;5.80;4.57;;;;;;;13.33;100.00;98010.38;2590367;28;20104;-85
2023/05/11 02:07:48;;;;;;;7.57;5.10;;;;;;;13.38;100.00;98011.00;2590991;28;20475;-84
2023/05/11 02:09:06;;;;;;;8.07;5.32;;;;;;;13.06;100.00;98008.09;2593629;28;20050;-84
2023/05/11 02:10:25;;;;;;;7.68;5.20;;;;;;;13.57;100.00;98010.19;2592538;28;20051;-85
2023/05/11 02:11:43;;;;;;;6.75;4.93;;;;;;;13.79;100.00;98006.53;2593606;28;20046;-84
2023/05/11 02:13:01;;;;;;;7.05;5.05;;;;;;;13.89;100.00;98009.56;2594610;28;20523;-84
2023/05/11 02:14:18;;;;;;;7.30;4.90;;;;;;;13.62;100.00;98010.81;2595784;28;20049;-84
2023/05/11 02:15:40;;;;;;;6.68;4.57;;;;;;;13.46;100.00;98004.59;2594830;28;20141;-84
2023/05/11 02:16:56;;;;;;;8.43;4.93;;;;;;;13.38;100.00;98008.38;2594494;28;20057;-84
2023/05/11 02:18:13;;;;;;;6.35;4.38;;;;;;;13.19;100.00;98010.16;2595516;28;20880;-84
2023/05/11 02:19:32;;;;;;;6.30;4.75;;;;;;;13.22;100.00;98010.88;2593541;28;20069;-85
2023/05/11 02:20:49;;;;;;;7.22;4.63;;;;;;;13.21;100.00;98008.31;2593035;28;20054;-84
2023/05/11 02:22:06;;;;;;;5.75;4.50;;;;;;;13.07;100.00;98004.53;2594600;28;20072;-84
2023/05/11 02:23:25;;;;;;;7.28;4.72;;;;;;;12.96;100.00;98009.41;2593501;28;20541;-84
2023/05/11 02:24:41;;;;;;;6.03;4.32;;;;;;;13.08;100.00;98008.03;2592844;28;20041;-84
2023/05/11 02:25:57;;;;;;;5.60;4.70;;;;;;;13.51;100.00;98007.84;2594842;28;20390;-83
2023/05/11 02:27:13;;;;;;;8.60;4.68;;;;;;;13.39;100.00;98009.25;2594014;28;20133;-84
2023/05/11 02:28:29;;;;;;;6.90;5.10;;;;;;;13.56;100.00;98016.38;2595917;28;20053;-84
2023/05/11 02:29:45;;;;;;;7.40;4.90;;;;;;;13.81;100.00;98013.44;2593551;28;20410;-84
2023/05/11 02:31:08;;;;;;;5.65;4.93;;;;;;;13.92;100.00;98012.06;2595082;28;20108;-84
2023/05/11 02:32:27;;;;;;;6.93;4.45;;;;;;;13.73;100.00;98006.84;2602869;28;21057;-84
2023/05/11 02:33:47;;;;;;;5.65;4.05;;;;;;;13.45;100.00;98013.41;2597401;28;20050;-84
2023/05/11 02:35:26;;;;;;;6.30;4.30;;;;;;;13.45;100.00;98016.88;2593644;28;20341;-84
2023/05/11 02:36:42;;;;;;;5.85;4.30;;;;;;;13.84;100.00;98001.91;2587751;28;20088;-84
2023/05/11 02:38:00;;;;;;;6.55;4.30;;;;;;;14.01;100.00;98008.97;2592748;28;20575;-84
2023/05/11 02:39:20;;;;;;;5.60;4.35;;;;;;;13.98;100.00;98007.34;2593465;28;20068;-84
2023/05/11 02:40:43;;;;;;;7.13;4.22;;;;;;;13.77;100.00;98013.66;2594833;28;20050;-84
2023/05/11 02:42:05;;;;;;;6.93;4.28;;;;;;;13.85;100.00;98006.25;2594447;28;20053;-85
2023/05/11 02:43:24;;;;;;;7.75;4.95;;;;;;;13.75;100.00;98010.25;2593593;28;20053;-84
2023/05/11 02:44:44;;;;;;;5.75;4.35;;;;;;;13.38;100.00;98016.28;2595675;28;20048;-84
2023/05/11 02:46:03;;;;;;;5.40;4.30;;;;;;;13.79;100.00;98012.66;2595121;28;20061;-84
2023/05/11 02:47:21;;;;;;;5.22;4.10;;;;;;;13.98;100.00;98010.00;2592743;28;20058;-84
2023/05/11 02:48:48;;;;;;;7.28;4.43;;;;;;;13.92;100.00;98012.06;2592974;28;20104;-84
2023/05/11 02:50:06;;;;;;;5.95;4.20;;;;;;;14.01;100.00;98005.50;2592657;28;20073;-84
2023/05/11 02:51:29;;;;;;;6.88;4.22;;;;;;;14.05;100.00;98012.31;2589320;28;20135;-84
2023/05/11 02:52:47;;;;;;;5.85;4.13;;;;;;;14.16;100.00;98010.00;2593313;28;20069;-84
2023/05/11 02:54:06;;;;;;;6.78;4.35;;;;;;;14.11;100.00;98018.13;2593638;28;20053;-84
2023/05/11 02:55:22;;;;;;;5.10;4.03;;;;;;;13.82;100.00;98009.00;2594219;28;20049;-84
2023/05/11 02:56:39;;;;;;;6.43;4.57;;;;;;;13.75;100.00;98011.06;2592740;28;20480;-84
2023/05/11 02:57:55;;;;;;;6.05;4.07;;;;;;;13.63;100.00;98015.16;2593991;28;20090;-84
2023/05/11 02:59:11;;;;;;;6.65;4.20;;;;;;;13.92;100.00;98018.16;2592710;28;20148;-85
2023/05/11 03:00:27;;;;;;;6.28;4.40;;;;;;;14.04;100.00;98015.88;2594394;28;20559;-84
2023/05/11 03:01:43;;;;;;;5.13;4.18;;;;;;;14.01;100.00;98016.88;2595748;28;20038;-84
2023/05/11 03:02:59;;;;;;;6.07;4.40;;;;;;;14.03;100.00;98019.44;2592616;28;20049;-84
2023/05/11 03:04:15;;;;;;;5.15;4.00;;;;;;;13.82;100.00;98014.25;2594550;28;20181;-84
2023/05/11 03:05:30;;;;;;;5.97;4.30;;;;;;;13.82;100.00;98016.91;2593840;28;20049;-84
2023/05/11 03:06:46;;;;;;;6.72;4.40;;;;;;;14.03;100.00;98016.78;2596026;28;20045;-84
2023/05/11 03:08:01;;;;;;;6.60;4.63;;;;;;;13.94;100.00;98011.03;2594558;28;20045;-85
2023/05/11 03:09:17;;;;;;;6.38;4.80;;;;;;;14.07;100.00;98010.44;2594431;28;20144;-85
2023/05/11 03:10:33;;;;;;;8.90;5.05;;;;;;;14.17;100.00;98011.69;2595286;28;20053;-85
2023/05/11 03:11:49;;;;;;;7.45;4.25;;;;;;;14.22;100.00;98019.38;2594428;28;20061;-85
2023/05/11 03:13:06;;;;;;;6.60;4.32;;;;;;;14.20;100.00;98015.97;2595347;28;20108;-84
2023/05/11 03:14:22;;;;;;;6.00;4.40;;;;;;;14.09;100.00;98014.72;2593840;28;20081;-84
2023/05/11 03:15:39;;;;;;;6.18;4.63;;;;;;;14.14;100.00;98014.50;2593543;28;20049;-84
2023/05/11 03:16:55;;;;;;;7.47;4.80;;;;;;;14.19;100.00;98016.91;2594307;28;20642;-84
2023/05/11 03:18:12;;;;;;;6.32;4.68;;;;;;;14.24;100.00;98010.44;2594461;28;20456;-84
2023/05/11 03:19:28;;;;;;;6.10;4.68;;;;;;;14.00;100.00;98014.31;2593167;28;20054;-85
2023/05/11 03:20:44;;;;;;;7.05;4.72;;;;;;;13.89;100.00;98012.19;2590521;28;20153;-84
2023/05/11 03:22:01;;;;;;;7.82;5.03;;;;;;;13.79;100.00;98014.41;2593741;28;20133;-84
2023/05/11 03:23:17;;;;;;;6.78;4.97;;;;;;;13.78;100.00;98016.22;2592822;28;20551;-84
2023/05/11 03:24:33;;;;;;;7.38;5.78;;;;;;;13.67;100.00;98016.72;2593504;28;20049;-86
2023/05/11 03:25:49;;;;;;;7.93;5.50;;;;;;;13.81;100.00;98018.69;2594437;28;20491;-84
2023/05/11 03:27:07;;;;;;;7.45;5.40;;;;;;;14.06;100.00;98019.28;2592971;28;20104;-84
2023/05/11 03:28:24;;;;;;;8.50;5.05;;;;;;;14.00;100.00;98015.16;2592840;28;20490;-84
2023/05/11 03:29:43;;;;;;;7.43;4.90;;;;;;;14.05;100.00;98017.56;2592731;28;20068;-84
2023/05/11 03:30:58;;;;;;;7.00;4.85;;;;;;;14.11;100.00;98018.13;2593755;28;20406;-84
2023/05/11 03:32:14;;;;;;;6.78;4.80;;;;;;;13.91;100.00;98027.00;2592318;28;20061;-84
2023/05/11 03:33:30;;;;;;;7.00;4.95;;;;;;;13.81;100.00;98016.06;2594311;28;20528;-84
2023/05/11 03:34:46;;;;;;;5.53;4.32;;;;;;;13.55;100.00;98022.56;2594999;28;20065;-84
2023/05/11 03:36:03;;;;;;;4.53;3.70;;;;;;;13.55;100.00;98019.94;2593414;28;20056;-84
2023/05/11 03:37:19;;;;;;;6.13;4.65;;;;;;;13.67;100.00;98024.59;2594190;28;20381;-84
2023/05/11 03:38:36;;;;;;;7.25;5.40;;;;;;;13.58;100.00;98025.06;2593708;28;20076;-84
2023/05/11 03:39:56;;;;;;;9.27;5.40;;;;;;;13.52;100.00;98022.69;2594627;28;20045;-84
2023/05/11 03:41:15;;;;;;;6.78;4.75;;;;;;;13.69;100.00;98030.66;2593383;28;20141;-84
2023/05/11 03:42:33;;;;;;;6.18;4.82;;;;;;;13.96;100.00;98026.78;2594197;28;20053;-84
2023/05/11 03:43:51;;;;;;;7.07;5.03;;;;;;;13.92;100.00;98025.22;2593115;28;20065;-84
2023/05/11 03:45:08;;;;;;;7.28;4.70;;;;;;;14.06;100.00;98021.91;2593447;28;20857;-84
2023/05/11 03:46:25;;;;;;;6.18;4.93;;;;;;;14.10;100.00;98021.69;2594988;28;20377;-84
2023/05/11 03:47:42;;;;;;;6.70;4.70;;;;;;;14.00;100.00;98022.22;2592275;28;20060;-84
2023/05/11 03:48:58;;;;;;;7.45;4.70;;;;;;;14.05;100.00;98025.47;2594204;28;20095;-84
2023/05/11 03:50:15;;;;;;;5.80;4.25;;;;;;;14.09;100.00;98022.63;2594321;28;20464;-84
2023/05/11 03:51:33;;;;;;;8.68;4.65;;;;;;;14.13;100.00;98026.78;2592424;28;20057;-84
2023/05/11 03:52:49;;;;;;;6.70;4.57;;;;;;;14.22;100.00;98028.13;2594195;28;20619;-84
2023/05/11 03:54:05;;;;;;;9.55;4.70;;;;;;;14.20;100.00;98023.88;2592208;28;20056;-85
2023/05/11 03:55:21;;;;;;;5.90;4.43;;;;;;;14.26;100.00;98029.69;2592690;28;20494;-85
2023/05/11 03:56:38;;;;;;;5.20;3.97;;;;;;;13.93;100.00;98025.13;2592382;28;20139;-85
2023/05/11 03:57:53;;;;;;;5.70;4.05;;;;;;;14.09;100.00;98024.38;2593880;28;20049;-84
2023/05/11 03:59:14;;;;;;;5.13;3.80;;;;;;;14.20;100.00;98024.72;2591979;28;20049;-84
2023/05/11 04:00:30;;;;;;;6.47;3.25;;;;;;;14.12;100.00;98024.25;2594231;28;20077;-83
2023/05/11 04:01:46;;;;;;;4.60;3.38;;;;;;;14.03;100.00;98024.69;2593274;28;20050;-84
2023/05/11 04:03:06;;;;;;;5.72;3.92;;;;;;;14.08;100.00;98022.69;2594439;28;20496;-83
2023/05/11 04:04:29;;;;;;;5.28;3.45;;;;;;;13.69;100.00;98035.06;2592741;28;20138;-84
2023/05/11 04:05:44;;;;;;;4.95;3.90;;;;;;;13.90;100.00;98020.03;2592451;28;20136;-83
2023/05/11 04:07:00;;;;;;;5.10;3.78;;;;;;;14.10;100.00;98026.09;2594179;28;20045;-84
2023/05/11 04:08:16;;;;;;;7.65;4.35;;;;;;;14.10;100.00;98026.94;2593591;28;20053;-84
2023/05/11 04:09:31;;;;;;;6.63;3.60;;;;;;;14.15;100.00;98024.09;2592827;28;20069;-84
2023/05/11 04:10:46;;;;;;;5.40;3.47;;;;;;;14.24;100.00;98025.41;2593627;28;20508;-84
2023/05/11 04:12:02;;;;;;;7.18;4.88;;;;;;;14.23;100.00;98024.53;2594318;28;20083;-84
2023/05/11 04:13:18;;;;;;;6.68;3.38;;;;;;;14.00;100.00;98024.84;2593959;28;20057;-83
2023/05/11 04:14:33;;;;;;;3.85;2.97;;;;;;;14.10;100.00;98021.69;2592198;28;20057;-84
2023/05/11 04:15:49;;;;;;;3.95;3.25;;;;;;;14.26;100.00;98027.06;2593423;28;20133;-84
2023/05/11 04:17:04;;;;;;;3.72;3.00;;;;;;;14.32;100.00;98023.25;2592612;28;20409;-84
2023/05/11 04:18:20;;;;;;;6.15;3.40;;;;;;;14.24;100.00;98026.25;2592537;28;20065;-83
2023/05/11 04:19:36;;;;;;;4.95;3.10;;;;;;;14.31;100.00;98025.97;2593403;28;20049;-84
2023/05/11 04:20:51;;;;;;;3.60;3.00;;;;;;;14.38;100.00;98028.22;2600793;28;20076;-84
2023/05/11 04:22:07;;;;;;;4.57;2.95;;;;;;;14.32;100.00;98027.66;2597450;28;20042;-84
2023/05/11 04:23:22;;;;;;;4.63;2.88;;;;;;;14.44;100.00;98027.06;2594431;28;20103;-84
2023/05/11 04:24:38;;;;;;;3.95;3.17;;;;;;;14.32;100.00;98031.16;2592147;28;21041;-84
2023/05/11 04:25:54;;;;;;;4.13;3.40;;;;;;;14.38;100.00;98029.97;2586831;28;20052;-85
2023/05/11 04:27:10;;;;;;;4.47;3.20;;;;;;;14.27;99.71;98038.41;2592699;28;20081;-84
2023/05/11 04:28:26;;;;;;;5.95;3.35;;;;;;;14.24;99.72;98033.31;2592656;28;20045;-84
2023/05/11 04:29:42;;;;;;;5.35;3.03;;;;;;;14.36;99.28;98023.94;2592781;28;20049;-85
2023/05/11 04:30:58;;;;;;;5.65;3.35;;;;;;;14.39;97.10;98035.19;2594192;28;20049;-84
2023/05/11 04:32:14;;;;;;;4.35;3.00;;;;;;;14.52;95.29;98034.56;2592576;28;20053;-84
2023/05/11 04:33:30;;;;;;;3.88;3.08;;;;;;;14.58;95.00;98036.03;2594040;28;20107;-84
2023/05/11 04:34:45;;;;;;;5.70;3.60;;;;;;;14.71;95.38;98039.75;2594073;28;20057;-84
2023/05/11 04:36:01;;;;;;;3.67;3.05;;;;;;;14.48;96.22;98038.28;2593087;28;20046;-85
2023/05/11 04:37:16;;;;;;;4.82;2.97;;;;;;;14.49;94.00;98042.63;2593281;28;20496;-83
2023/05/11 04:38:32;;;;;;;4.82;3.20;;;;;;;14.30;93.35;98035.63;2591930;28;20053;-84
2023/05/11 04:39:48;;;;;;;3.70;2.83;;;;;;;14.43;91.25;98042.91;2593661;28;20057;-83
2023/05/11 04:41:05;;;;;;;7.00;2.88;;;;;;;14.56;88.39;98049.28;2595366;28;20061;-84
2023/05/11 04:42:20;;;;;;;5.13;2.90;;;;;;;14.21;91.44;98039.56;2592133;28;20061;-84
2023/05/11 04:43:36;;;;;;;4.13;3.22;;;;;;;14.49;88.88;98043.47;2593979;28;20512;-84
2023/05/11 04:44:53;;;;;;;4.30;3.00;;;;;;;14.60;88.50;98044.72;2593358;28;20099;-84
2023/05/11 04:46:09;;;;;;;6.07;2.67;;;;;;;14.69;88.69;98045.09;2592489;28;20049;-84
2023/05/11 04:47:24;;;;;;;3.70;2.85;;;;;;;14.54;91.77;98040.59;2601921;28;20133;-84
2023/05/11 04:48:40;;;;;;;4.78;3.38;;;;;;;14.46;91.37;98046.25;2592088;28;20053;-84
2023/05/11 04:49:56;;;;;;;3.88;3.05;;;;;;;14.80;88.99;98047.19;2592322;28;20120;-84
2023/05/11 04:51:11;;;;;;;7.10;3.10;;;;;;;14.80;90.74;98049.00;2592878;28;20038;-84
2023/05/11 04:52:27;;;;;;;5.05;3.38;;;;;;;14.86;89.53;98045.19;2594194;28;20046;-83
2023/05/11 04:53:43;;;;;;;5.07;3.35;;;;;;;14.75;91.55;98048.38;2592255;28;20065;-83
2023/05/11 04:54:58;;;;;;;6.57;3.35;;;;;;;14.84;89.93;98047.88;2594586;28;20045;-83
2023/05/11 04:56:14;;;;;;;3.90;3.35;;;;;;;14.87;89.19;98049.53;2592371;28;20045;-83
2023/05/11 04:57:30;;;;;;;4.20;3.25;;;;;;;14.49;91.35;98048.72;2593891;28;20428;-83
2023/05/11 04:58:45;;;;;;;4.55;3.25;;;;;;;14.78;91.08;98049.06;2592769;28;20050;-82
2023/05/11 05:00:01;;;;;;;5.75;3.20;;;;;;;14.81;88.68;98043.66;2592534;28;20050;-82
2023/05/11 05:01:16;;;;;;;4.25;3.10;;;;;;;14.77;91.99;98051.78;2591459;28;20046;-82
2023/05/11 05:02:32;;;;;;;5.82;3.13;;;;;;;15.03;89.26;98052.22;2593150;28;20053;-83
2023/05/11 05:03:48;;;;;;;4.88;3.58;;;;;;;15.00;90.80;98047.94;2594361;28;20045;-81
2023/05/11 05:05:04;;;;;;;8.77;3.60;;;;;;;15.15;89.50;98053.34;2592188;28;20146;-82
2023/05/11 05:06:20;;;;;;;4.18;2.80;;;;;;;14.36;90.31;98048.50;2593651;28;20050;-82
2023/05/11 05:07:35;;;;;;;4.68;2.92;;;;;;;14.46;90.09;98053.28;2591713;28;20056;-82
2023/05/11 05:08:51;;;;;;;5.22;3.10;;;;;;;14.24;91.43;98049.94;2593524;28;20046;-82
2023/05/11 05:10:08;;;;;;;5.28;3.15;;;;;;;14.55;87.36;98056.34;2592578;28;20599;-83
2023/05/11 05:11:23;;;;;;;3.22;2.88;;;;;;;14.74;85.00;98054.59;2592447;28;20511;-83
2023/05/11 05:12:39;;;;;;;3.53;2.88;;;;;;;14.97;82.07;98048.13;2592553;28;20092;-82
2023/05/11 05:13:54;;;;;;;5.00;2.70;;;;;;;14.70;82.37;98051.22;2592689;28;20054;-83
2023/05/11 05:15:11;;;;;;;4.22;3.30;;;;;;;14.87;81.82;98060.06;2593791;28;20069;-83
2023/05/11 05:16:26;;;;;;;4.80;3.03;;;;;;;14.90;81.97;98059.91;2592749;28;20544;-83
2023/05/11 05:17:42;;;;;;;3.22;2.70;;;;;;;14.88;81.92;98057.38;2592830;28;20058;-83
2023/05/11 05:18:57;;;;;;;5.18;3.28;;;;;;;15.08;80.23;98058.09;2594489;28;20053;-83
2023/05/11 05:20:13;;;;;;;5.00;2.95;;;;;;;15.03;79.93;98065.41;2597825;28;20394;-83
2023/05/11 05:21:29;;;;;;;4.18;2.95;;;;;;;14.97;79.00;98056.03;2590979;28;20049;-84
2023/05/11 05:22:44;;;;;;;5.55;2.83;;;;;;;14.94;77.08;98069.34;2592156;28;20523;-84
2023/05/11 05:24:02;;;;;;;4.18;3.13;;;;;;;14.45;79.84;98063.00;2592973;28;20053;-84
2023/05/11 05:25:17;;;;;;;4.78;3.25;;;;;;;14.95;78.26;98071.09;2593758;28;20045;-84
2023/05/11 05:26:33;;;;;;;3.90;2.90;;;;;;;15.06;77.49;98073.97;2593126;28;20099;-84
2023/05/11 05:27:49;;;;;;;5.18;3.47;;;;;;;15.10;76.26;98069.41;2591696;28;20100;-84
2023/05/11 05:29:05;;;;;;;4.45;3.08;;;;;;;14.82;79.22;98071.72;2593088;28;20064;-84
2023/05/11 05:30:21;;;;;;;7.38;2.90;;;;;;;14.73;77.60;98068.66;2593955;28;20046;-84
2023/05/11 05:31:37;;;;;;;3.10;2.70;;;;;;;14.91;76.69;98066.88;2593065;28;20104;-84
2023/05/11 05:32:53;;;;;;;6.85;2.95;;;;;;;15.00;74.44;98074.31;2590957;28;20053;-84
2023/05/11 05:34:09;;;;;;;4.90;2.55;;;;;;;15.00;74.56;98073.44;2594740;28;20112;-84
2023/05/11 05:35:25;;;;;;;3.50;2.55;;;;;;;15.09;74.36;98071.22;2587509;28;20555;-84
2023/05/11 05:36:40;;;;;;;6.30;2.95;;;;;;;15.15;75.19;98066.53;2591517;28;20049;-84
2023/05/11 05:37:56;;;;;;;6.57;2.85;;;;;;;15.03;75.67;98070.69;2594517;28;20053;-84
2023/05/11 05:39:12;;;;;;;3.92;2.63;;;;;;;14.86;77.61;98071.53;2592328;28;20053;-84
2023/05/11 05:40:30;;;;;;;3.58;2.75;;;;;;;15.10;76.14;98070.28;2591767;28;20065;-84
2023/05/11 05:41:45;;;;;;;4.47;2.78;;;;;;;15.58;74.60;98071.31;2591679;28;20046;-84
2023/05/11 05:43:01;;;;;;;5.97;2.60;;;;;;;15.35;75.07;98066.31;2592553;28;20061;-84
2023/05/11 05:44:17;;;;;;;4.07;2.40;;;;;;;15.44;74.16;98077.31;2593048;28;20500;-84
2023/05/11 05:45:32;;;;;;;3.75;2.55;;;;;;;15.41;73.77;98069.56;2591191;28;20049;-84
2023/05/11 05:46:48;;;;;;;3.67;2.70;;;;;;;15.20;73.00;98075.03;2595594;28;20057;-84
2023/05/11 05:48:04;;;;;;;5.07;2.83;;;;;;;15.35;72.50;98068.94;2596374;28;20053;-84
2023/05/11 05:49:20;;;;;;;4.35;2.92;;;;;;;15.38;72.14;98074.09;2595213;28;20848;-84
2023/05/11 05:50:36;;;;;;;5.40;2.70;;;;;;;15.25;71.73;98073.03;2593050;28;20050;-84
2023/05/11 05:51:51;;;;;;;3.88;2.80;;;;;;;15.57;69.52;98078.34;2592880;28;20042;-84
2023/05/11 05:53:07;;;;;;;3.58;2.70;;;;;;;15.78;68.71;98078.09;2596009;28;20077;-84
2023/05/11 05:54:23;;;;;;;4.43;2.72;;;;;;;15.91;68.55;98076.50;2593775;28;20242;-84
2023/05/11 05:55:38;;;;;;;4.20;2.58;;;;;;;15.65;69.79;98076.16;2595681;28;20046;-84
2023/05/11 05:56:54;;;;;;;4.47;2.58;;;;;;;15.62;69.10;98078.94;2594092;28;20049;-84
2023/05/11 05:58:10;;;;;;;5.60;2.90;;;;;;;15.86;67.34;98081.19;2595087;28;20050;-84
2023/05/11 05:59:25;;;;;;;2.92;2.38;;;;;;;15.70;68.51;98078.53;2593141;28;20064;-84
2023/05/11 06:00:41;;;;;;;3.67;2.83;;;;;;;15.76;68.44;98079.97;2593342;28;20046;-84
2023/05/11 06:01:57;;;;;;;4.78;2.67;;;;;;;15.89;67.07;98082.81;2595533;28;20132;-84
2023/05/11 06:03:12;;;;;;;3.63;2.80;;;;;;;16.00;66.17;98084.88;2596365;28;20152;-84